sensor_id;sensor_type;location;lat;lon;timestamp;P1;durP1;ratioP1;P2;durP2;ratioP2
24335;SDS011;33098;52.400;16.880;2023-04-01T00:01:07;4.50;;;3.30;;
24335;SDS011;33098;52.400;16.880;2023-04-01T00:03:34;4.20;;;3.30;;
24335;SDS011;33098;52.400;16.880;2023-04-01T00:06:02;4.10;;;3.60;;
24335;SDS011;33098;52.400;16.880;2023-04-01T00:08:30;5.00;;;3.20;;
24335;SDS011;33098;52.400;16.880;2023-04-01T00:10:57;4.60;;;3.40;;
24335;SDS011;33098;52.400;16.880;2023-04-01T00:13:27;5.00;;;3.60;;
24335;SDS011;33098;52.400;16.880;2023-04-01T00:15:54;5.00;;;3.50;;
24335;SDS011;33098;52.400;16.880;2023-04-01T00:18:22;3.90;;;3.30;;
24335;SDS011;33098;52.400;16.880;2023-04-01T00:20:50;4.80;;;3.40;;
24335;SDS011;33098;52.400;16.880;2023-04-01T00:23:19;5.10;;;3.50;;
24335;SDS011;33098;52.400;16.880;2023-04-01T00:25:46;4.30;;;3.60;;
24335;SDS011;33098;52.400;16.880;2023-04-01T00:28:16;4.30;;;3.70;;
24335;SDS011;33098;52.400;16.880;2023-04-01T00:30:47;5.60;;;3.20;;
24335;SDS011;33098;52.400;16.880;2023-04-01T00:33:14;3.80;;;3.30;;
24335;SDS011;33098;52.400;16.880;2023-04-01T00:35:43;6.20;;;3.80;;
24335;SDS011;33098;52.400;16.880;2023-04-01T00:38:17;4.10;;;3.60;;
24335;SDS011;33098;52.400;16.880;2023-04-01T00:40:45;5.80;;;3.80;;
24335;SDS011;33098;52.400;16.880;2023-04-01T00:43:15;5.20;;;3.90;;
24335;SDS011;33098;52.400;16.880;2023-04-01T00:45:47;4.60;;;3.40;;
24335;SDS011;33098;52.400;16.880;2023-04-01T00:48:29;4.10;;;3.40;;
24335;SDS011;33098;52.400;16.880;2023-04-01T00:51:04;5.00;;;3.30;;
24335;SDS011;33098;52.400;16.880;2023-04-01T00:53:36;4.40;;;3.40;;
24335;SDS011;33098;52.400;16.880;2023-04-01T00:59:04;4.90;;;3.90;;
24335;SDS011;33098;52.400;16.880;2023-04-01T01:01:37;4.00;;;3.60;;
24335;SDS011;33098;52.400;16.880;2023-04-01T01:04:06;4.70;;;3.70;;
24335;SDS011;33098;52.400;16.880;2023-04-01T01:06:46;6.00;;;3.90;;
24335;SDS011;33098;52.400;16.880;2023-04-01T01:09:34;5.00;;;4.40;;
24335;SDS011;33098;52.400;16.880;2023-04-01T01:12:23;5.50;;;4.30;;
24335;SDS011;33098;52.400;16.880;2023-04-01T01:17:58;6.60;;;5.40;;
24335;SDS011;33098;52.400;16.880;2023-04-01T01:26:22;9.60;;;6.50;;
24335;SDS011;33098;52.400;16.880;2023-04-01T01:38:04;12.60;;;8.60;;
24335;SDS011;33098;52.400;16.880;2023-04-01T01:40:45;14.40;;;9.50;;
24335;SDS011;33098;52.400;16.880;2023-04-01T01:43:19;12.10;;;9.20;;
24335;SDS011;33098;52.400;16.880;2023-04-01T01:45:52;12.70;;;10.00;;
24335;SDS011;33098;52.400;16.880;2023-04-01T01:48:25;12.60;;;10.00;;
24335;SDS011;33098;52.400;16.880;2023-04-01T01:50:54;12.30;;;9.50;;
24335;SDS011;33098;52.400;16.880;2023-04-01T01:53:22;12.50;;;9.50;;
24335;SDS011;33098;52.400;16.880;2023-04-01T01:55:49;11.10;;;9.30;;
24335;SDS011;33098;52.400;16.880;2023-04-01T01:58:18;10.80;;;9.10;;
24335;SDS011;33098;52.400;16.880;2023-04-01T02:00:48;11.40;;;9.40;;
24335;SDS011;33098;52.400;16.880;2023-04-01T02:03:23;11.10;;;9.90;;
24335;SDS011;33098;52.400;16.880;2023-04-01T02:05:56;11.20;;;9.30;;
24335;SDS011;33098;52.400;16.880;2023-04-01T02:08:28;11.30;;;9.30;;
24335;SDS011;33098;52.400;16.880;2023-04-01T02:11:03;10.00;;;8.50;;
24335;SDS011;33098;52.400;16.880;2023-04-01T02:13:39;11.90;;;9.20;;
24335;SDS011;33098;52.400;16.880;2023-04-01T02:16:16;10.80;;;8.60;;
24335;SDS011;33098;52.400;16.880;2023-04-01T02:18:51;10.80;;;8.50;;
24335;SDS011;33098;52.400;16.880;2023-04-01T02:21:22;10.90;;;9.30;;
24335;SDS011;33098;52.400;16.880;2023-04-01T02:23:55;13.30;;;10.00;;
24335;SDS011;33098;52.400;16.880;2023-04-01T02:26:26;11.30;;;9.00;;
24335;SDS011;33098;52.400;16.880;2023-04-01T02:28:54;12.70;;;9.80;;
24335;SDS011;33098;52.400;16.880;2023-04-01T02:31:23;11.30;;;9.30;;
24335;SDS011;33098;52.400;16.880;2023-04-01T02:33:51;11.10;;;9.20;;
24335;SDS011;33098;52.400;16.880;2023-04-01T02:36:22;11.50;;;9.00;;
24335;SDS011;33098;52.400;16.880;2023-04-01T02:38:49;11.90;;;9.60;;
24335;SDS011;33098;52.400;16.880;2023-04-01T02:41:19;11.30;;;9.70;;
24335;SDS011;33098;52.400;16.880;2023-04-01T02:43:47;12.70;;;9.90;;
24335;SDS011;33098;52.400;16.880;2023-04-01T02:46:15;12.30;;;8.50;;
24335;SDS011;33098;52.400;16.880;2023-04-01T02:48:42;10.30;;;9.00;;
24335;SDS011;33098;52.400;16.880;2023-04-01T02:51:11;13.30;;;9.50;;
24335;SDS011;33098;52.400;16.880;2023-04-01T02:53:44;12.50;;;9.60;;
24335;SDS011;33098;52.400;16.880;2023-04-01T02:56:11;11.00;;;9.60;;
24335;SDS011;33098;52.400;16.880;2023-04-01T02:58:38;11.30;;;9.40;;
24335;SDS011;33098;52.400;16.880;2023-04-01T03:01:06;11.90;;;9.10;;
24335;SDS011;33098;52.400;16.880;2023-04-01T03:03:34;10.70;;;9.50;;
24335;SDS011;33098;52.400;16.880;2023-04-01T03:06:05;13.40;;;9.80;;
24335;SDS011;33098;52.400;16.880;2023-04-01T03:08:34;11.30;;;9.20;;
24335;SDS011;33098;52.400;16.880;2023-04-01T03:11:01;12.10;;;9.60;;
24335;SDS011;33098;52.400;16.880;2023-04-01T03:13:29;14.00;;;10.40;;
24335;SDS011;33098;52.400;16.880;2023-04-01T03:16:01;12.70;;;9.40;;
24335;SDS011;33098;52.400;16.880;2023-04-01T03:18:29;11.70;;;9.20;;
24335;SDS011;33098;52.400;16.880;2023-04-01T03:20:56;11.10;;;9.20;;
24335;SDS011;33098;52.400;16.880;2023-04-01T03:23:23;11.00;;;9.10;;
24335;SDS011;33098;52.400;16.880;2023-04-01T03:25:50;9.00;;;7.50;;
24335;SDS011;33098;52.400;16.880;2023-04-01T03:28:17;10.40;;;8.50;;
24335;SDS011;33098;52.400;16.880;2023-04-01T03:30:45;8.50;;;7.40;;
24335;SDS011;33098;52.400;16.880;2023-04-01T03:33:13;8.30;;;6.80;;
24335;SDS011;33098;52.400;16.880;2023-04-01T03:35:40;8.40;;;6.60;;
24335;SDS011;33098;52.400;16.880;2023-04-01T03:38:07;7.40;;;6.20;;
24335;SDS011;33098;52.400;16.880;2023-04-01T03:40:34;7.70;;;6.40;;
24335;SDS011;33098;52.400;16.880;2023-04-01T03:45:44;7.30;;;5.60;;
24335;SDS011;33098;52.400;16.880;2023-04-01T03:48:15;6.90;;;5.60;;
24335;SDS011;33098;52.400;16.880;2023-04-01T03:50:42;7.10;;;5.50;;
24335;SDS011;33098;52.400;16.880;2023-04-01T03:53:11;7.00;;;5.60;;
24335;SDS011;33098;52.400;16.880;2023-04-01T03:55:40;5.70;;;5.00;;
24335;SDS011;33098;52.400;16.880;2023-04-01T03:58:07;7.50;;;5.50;;
24335;SDS011;33098;52.400;16.880;2023-04-01T04:00:36;6.40;;;5.40;;
24335;SDS011;33098;52.400;16.880;2023-04-01T04:03:05;5.60;;;4.80;;
24335;SDS011;33098;52.400;16.880;2023-04-01T04:05:36;5.60;;;4.80;;
24335;SDS011;33098;52.400;16.880;2023-04-01T04:08:12;6.50;;;5.20;;
24335;SDS011;33098;52.400;16.880;2023-04-01T04:10:41;5.30;;;4.80;;
24335;SDS011;33098;52.400;16.880;2023-04-01T04:13:12;7.30;;;5.70;;
24335;SDS011;33098;52.400;16.880;2023-04-01T04:15:46;7.90;;;5.70;;
24335;SDS011;33098;52.400;16.880;2023-04-01T04:18:13;6.70;;;5.10;;
24335;SDS011;33098;52.400;16.880;2023-04-01T04:23:17;7.10;;;5.70;;
24335;SDS011;33098;52.400;16.880;2023-04-01T04:25:54;6.30;;;5.50;;
24335;SDS011;33098;52.400;16.880;2023-04-01T04:28:26;6.80;;;6.10;;
24335;SDS011;33098;52.400;16.880;2023-04-01T04:30:57;6.50;;;5.50;;
24335;SDS011;33098;52.400;16.880;2023-04-01T04:33:24;7.20;;;5.50;;
24335;SDS011;33098;52.400;16.880;2023-04-01T04:35:55;8.10;;;5.40;;
24335;SDS011;33098;52.400;16.880;2023-04-01T04:38:24;7.00;;;5.80;;
24335;SDS011;33098;52.400;16.880;2023-04-01T04:40:52;7.40;;;5.10;;
24335;SDS011;33098;52.400;16.880;2023-04-01T04:43:19;6.50;;;5.70;;
24335;SDS011;33098;52.400;16.880;2023-04-01T04:45:50;6.30;;;5.70;;
24335;SDS011;33098;52.400;16.880;2023-04-01T04:48:20;7.10;;;5.70;;
24335;SDS011;33098;52.400;16.880;2023-04-01T04:50:49;7.10;;;5.70;;
24335;SDS011;33098;52.400;16.880;2023-04-01T04:53:21;6.20;;;5.60;;
24335;SDS011;33098;52.400;16.880;2023-04-01T04:55:49;6.60;;;5.30;;
24335;SDS011;33098;52.400;16.880;2023-04-01T04:58:42;7.20;;;5.80;;
24335;SDS011;33098;52.400;16.880;2023-04-01T05:01:11;8.30;;;6.00;;
24335;SDS011;33098;52.400;16.880;2023-04-01T05:03:41;6.70;;;5.90;;
24335;SDS011;33098;52.400;16.880;2023-04-01T05:06:09;7.40;;;5.70;;
24335;SDS011;33098;52.400;16.880;2023-04-01T05:08:41;7.00;;;5.60;;
24335;SDS011;33098;52.400;16.880;2023-04-01T05:11:14;7.40;;;5.80;;
24335;SDS011;33098;52.400;16.880;2023-04-01T05:13:44;7.00;;;5.70;;
24335;SDS011;33098;52.400;16.880;2023-04-01T05:16:13;7.60;;;6.10;;
24335;SDS011;33098;52.400;16.880;2023-04-01T05:18:42;7.00;;;6.20;;
24335;SDS011;33098;52.400;16.880;2023-04-01T05:21:14;6.60;;;5.70;;
24335;SDS011;33098;52.400;16.880;2023-04-01T05:23:42;7.60;;;5.50;;
24335;SDS011;33098;52.400;16.880;2023-04-01T05:26:17;9.60;;;6.20;;
24335;SDS011;33098;52.400;16.880;2023-04-01T05:28:44;8.50;;;6.20;;
24335;SDS011;33098;52.400;16.880;2023-04-01T05:31:11;6.70;;;5.70;;
24335;SDS011;33098;52.400;16.880;2023-04-01T05:33:40;7.40;;;6.70;;
24335;SDS011;33098;52.400;16.880;2023-04-01T05:36:09;7.30;;;6.30;;
24335;SDS011;33098;52.400;16.880;2023-04-01T05:38:38;7.60;;;6.50;;
24335;SDS011;33098;52.400;16.880;2023-04-01T05:41:06;7.30;;;6.10;;
24335;SDS011;33098;52.400;16.880;2023-04-01T05:43:40;9.60;;;6.30;;
24335;SDS011;33098;52.400;16.880;2023-04-01T05:46:27;6.90;;;6.20;;
24335;SDS011;33098;52.400;16.880;2023-04-01T05:49:09;7.70;;;6.60;;
24335;SDS011;33098;52.400;16.880;2023-04-01T05:51:37;7.50;;;6.20;;
24335;SDS011;33098;52.400;16.880;2023-04-01T05:54:04;7.40;;;6.20;;
24335;SDS011;33098;52.400;16.880;2023-04-01T05:56:33;7.30;;;6.40;;
24335;SDS011;33098;52.400;16.880;2023-04-01T05:59:04;8.30;;;7.30;;
24335;SDS011;33098;52.400;16.880;2023-04-01T06:01:32;7.90;;;6.80;;
24335;SDS011;33098;52.400;16.880;2023-04-01T06:04:09;8.20;;;7.20;;
24335;SDS011;33098;52.400;16.880;2023-04-01T06:06:46;7.20;;;6.50;;
24335;SDS011;33098;52.400;16.880;2023-04-01T06:09:22;7.40;;;6.20;;
24335;SDS011;33098;52.400;16.880;2023-04-01T06:23:07;6.00;;;5.40;;
24335;SDS011;33098;52.400;16.880;2023-04-01T06:25:49;6.30;;;5.40;;
24335;SDS011;33098;52.400;16.880;2023-04-01T06:28:37;5.80;;;5.20;;
24335;SDS011;33098;52.400;16.880;2023-04-01T06:31:18;7.20;;;5.10;;
24335;SDS011;33098;52.400;16.880;2023-04-01T06:43:08;5.70;;;4.90;;
24335;SDS011;33098;52.400;16.880;2023-04-01T06:46:40;6.40;;;5.50;;
24335;SDS011;33098;52.400;16.880;2023-04-01T06:56:15;5.90;;;5.20;;
24335;SDS011;33098;52.400;16.880;2023-04-01T06:58:54;6.50;;;5.60;;
24335;SDS011;33098;52.400;16.880;2023-04-01T07:01:37;6.20;;;5.60;;
24335;SDS011;33098;52.400;16.880;2023-04-01T07:04:13;6.70;;;5.80;;
24335;SDS011;33098;52.400;16.880;2023-04-01T07:07:05;7.60;;;6.30;;
24335;SDS011;33098;52.400;16.880;2023-04-01T07:09:53;7.20;;;6.20;;
24335;SDS011;33098;52.400;16.880;2023-04-01T07:15:33;8.00;;;7.10;;
24335;SDS011;33098;52.400;16.880;2023-04-01T07:18:06;8.10;;;7.30;;
24335;SDS011;33098;52.400;16.880;2023-04-01T07:20:37;8.30;;;7.50;;
24335;SDS011;33098;52.400;16.880;2023-04-01T07:23:21;8.00;;;7.20;;
24335;SDS011;33098;52.400;16.880;2023-04-01T07:26:04;8.40;;;7.30;;
24335;SDS011;33098;52.400;16.880;2023-04-01T07:29:04;8.30;;;7.20;;
24335;SDS011;33098;52.400;16.880;2023-04-01T07:31:58;8.60;;;7.10;;
24335;SDS011;33098;52.400;16.880;2023-04-01T07:37:45;7.60;;;6.00;;
24335;SDS011;33098;52.400;16.880;2023-04-01T07:43:25;8.10;;;5.90;;
24335;SDS011;33098;52.400;16.880;2023-04-01T07:46:57;5.90;;;4.80;;
24335;SDS011;33098;52.400;16.880;2023-04-01T07:49:14;6.40;;;4.90;;
24335;SDS011;33098;52.400;16.880;2023-04-01T07:57:47;5.40;;;4.70;;
24335;SDS011;33098;52.400;16.880;2023-04-01T08:00:56;7.90;;;5.20;;
24335;SDS011;33098;52.400;16.880;2023-04-01T08:06:28;6.30;;;4.50;;
24335;SDS011;33098;52.400;16.880;2023-04-01T08:09:06;7.40;;;5.00;;
24335;SDS011;33098;52.400;16.880;2023-04-01T08:21:47;5.00;;;4.50;;
24335;SDS011;33098;52.400;16.880;2023-04-01T08:24:25;4.70;;;4.20;;
24335;SDS011;33098;52.400;16.880;2023-04-01T08:26:58;5.20;;;4.70;;
24335;SDS011;33098;52.400;16.880;2023-04-01T08:32:09;6.80;;;4.70;;
24335;SDS011;33098;52.400;16.880;2023-04-01T08:34:48;5.80;;;4.20;;
24335;SDS011;33098;52.400;16.880;2023-04-01T08:37:36;5.50;;;4.60;;
24335;SDS011;33098;52.400;16.880;2023-04-01T08:45:41;7.40;;;5.70;;
24335;SDS011;33098;52.400;16.880;2023-04-01T08:51:12;7.60;;;6.30;;
24335;SDS011;33098;52.400;16.880;2023-04-01T09:22:37;12.00;;;8.50;;
24335;SDS011;33098;52.400;16.880;2023-04-01T09:33:39;11.30;;;7.90;;
24335;SDS011;33098;52.400;16.880;2023-04-01T09:42:42;14.10;;;9.10;;
24335;SDS011;33098;52.400;16.880;2023-04-01T09:45:32;13.20;;;9.60;;
24335;SDS011;33098;52.400;16.880;2023-04-01T09:48:24;14.50;;;9.60;;
24335;SDS011;33098;52.400;16.880;2023-04-01T09:51:04;14.10;;;10.00;;
24335;SDS011;33098;52.400;16.880;2023-04-01T09:53:59;16.80;;;10.50;;
24335;SDS011;33098;52.400;16.880;2023-04-01T10:02:26;17.00;;;10.60;;
24335;SDS011;33098;52.400;16.880;2023-04-01T10:07:59;16.30;;;11.40;;
24335;SDS011;33098;52.400;16.880;2023-04-01T10:40:51;23.00;;;13.80;;
24335;SDS011;33098;52.400;16.880;2023-04-01T10:49:37;20.00;;;13.20;;
24335;SDS011;33098;52.400;16.880;2023-04-01T11:04:57;25.10;;;15.10;;
24335;SDS011;33098;52.400;16.880;2023-04-01T11:25:29;20.50;;;13.00;;
24335;SDS011;33098;52.400;16.880;2023-04-01T11:34:38;14.70;;;10.30;;
24335;SDS011;33098;52.400;16.880;2023-04-01T11:37:37;15.40;;;10.90;;
24335;SDS011;33098;52.400;16.880;2023-04-01T11:44:15;12.90;;;9.60;;
24335;SDS011;33098;52.400;16.880;2023-04-01T11:49:56;15.60;;;10.40;;
24335;SDS011;33098;52.400;16.880;2023-04-01T11:52:51;13.10;;;9.50;;
24335;SDS011;33098;52.400;16.880;2023-04-01T11:55:35;16.00;;;11.70;;
24335;SDS011;33098;52.400;16.880;2023-04-01T11:58:22;15.70;;;11.10;;
24335;SDS011;33098;52.400;16.880;2023-04-01T12:03:51;16.10;;;10.90;;
24335;SDS011;33098;52.400;16.880;2023-04-01T12:06:44;16.90;;;11.50;;
24335;SDS011;33098;52.400;16.880;2023-04-01T12:12:49;15.50;;;11.60;;
24335;SDS011;33098;52.400;16.880;2023-04-01T12:17:53;16.20;;;11.00;;
24335;SDS011;33098;52.400;16.880;2023-04-01T12:20:33;12.70;;;9.70;;
24335;SDS011;33098;52.400;16.880;2023-04-01T12:31:52;14.60;;;9.50;;
24335;SDS011;33098;52.400;16.880;2023-04-01T12:34:39;15.30;;;9.10;;
24335;SDS011;33098;52.400;16.880;2023-04-01T12:52:37;13.30;;;9.30;;
24335;SDS011;33098;52.400;16.880;2023-04-01T12:58:15;12.30;;;8.30;;
24335;SDS011;33098;52.400;16.880;2023-04-01T13:01:04;11.20;;;7.70;;
24335;SDS011;33098;52.400;16.880;2023-04-01T13:06:40;8.80;;;7.40;;
24335;SDS011;33098;52.400;16.880;2023-04-01T13:15:01;8.10;;;6.40;;
24335;SDS011;33098;52.400;16.880;2023-04-01T13:20:03;10.00;;;6.00;;
24335;SDS011;33098;52.400;16.880;2023-04-01T13:22:45;7.30;;;5.30;;
24335;SDS011;33098;52.400;16.880;2023-04-01T13:28:23;6.20;;;5.20;;
24335;SDS011;33098;52.400;16.880;2023-04-01T13:45:32;6.90;;;5.60;;
24335;SDS011;33098;52.400;16.880;2023-04-01T13:48:07;7.50;;;5.80;;
24335;SDS011;33098;52.400;16.880;2023-04-01T14:01:44;5.50;;;4.60;;
24335;SDS011;33098;52.400;16.880;2023-04-01T14:32:51;5.90;;;5.00;;
24335;SDS011;33098;52.400;16.880;2023-04-01T14:35:23;6.30;;;5.10;;
24335;SDS011;33098;52.400;16.880;2023-04-01T14:53:27;6.40;;;5.70;;
24335;SDS011;33098;52.400;16.880;2023-04-01T14:58:16;7.90;;;6.20;;
24335;SDS011;33098;52.400;16.880;2023-04-01T15:09:16;6.60;;;5.20;;
24335;SDS011;33098;52.400;16.880;2023-04-01T15:11:48;7.40;;;5.10;;
24335;SDS011;33098;52.400;16.880;2023-04-01T15:26:08;6.80;;;5.50;;
24335;SDS011;33098;52.400;16.880;2023-04-01T15:31:48;7.40;;;5.40;;
24335;SDS011;33098;52.400;16.880;2023-04-01T15:37:04;6.50;;;5.50;;
24335;SDS011;33098;52.400;16.880;2023-04-01T15:42:25;7.90;;;6.20;;
24335;SDS011;33098;52.400;16.880;2023-04-01T15:47:42;6.80;;;5.30;;
24335;SDS011;33098;52.400;16.880;2023-04-01T15:50:36;6.40;;;5.50;;
24335;SDS011;33098;52.400;16.880;2023-04-01T15:53:22;6.80;;;5.50;;
24335;SDS011;33098;52.400;16.880;2023-04-01T15:59:16;6.50;;;5.10;;
24335;SDS011;33098;52.400;16.880;2023-04-01T16:04:50;7.80;;;5.70;;
24335;SDS011;33098;52.400;16.880;2023-04-01T16:26:53;6.50;;;5.20;;
24335;SDS011;33098;52.400;16.880;2023-04-01T16:37:49;7.50;;;5.80;;
24335;SDS011;33098;52.400;16.880;2023-04-01T16:46:28;5.70;;;5.10;;
24335;SDS011;33098;52.400;16.880;2023-04-01T16:57:28;6.50;;;5.00;;
24335;SDS011;33098;52.400;16.880;2023-04-01T17:00:16;6.50;;;5.30;;
24335;SDS011;33098;52.400;16.880;2023-04-01T17:11:37;7.00;;;5.30;;
24335;SDS011;33098;52.400;16.880;2023-04-01T17:19:48;8.40;;;6.10;;
24335;SDS011;33098;52.400;16.880;2023-04-01T17:22:31;8.60;;;6.40;;
24335;SDS011;33098;52.400;16.880;2023-04-01T17:25:03;8.60;;;6.50;;
24335;SDS011;33098;52.400;16.880;2023-04-01T17:30:38;8.50;;;6.00;;
24335;SDS011;33098;52.400;16.880;2023-04-01T17:33:20;10.20;;;7.00;;
24335;SDS011;33098;52.400;16.880;2023-04-01T17:36:36;8.10;;;6.30;;
24335;SDS011;33098;52.400;16.880;2023-04-01T17:41:56;8.90;;;6.10;;
24335;SDS011;33098;52.400;16.880;2023-04-01T17:44:51;8.80;;;6.30;;
24335;SDS011;33098;52.400;16.880;2023-04-01T17:50:22;7.10;;;6.10;;
24335;SDS011;33098;52.400;16.880;2023-04-01T17:53:12;7.50;;;5.70;;
24335;SDS011;33098;52.400;16.880;2023-04-01T17:58:39;8.70;;;5.90;;
24335;SDS011;33098;52.400;16.880;2023-04-01T18:09:08;8.50;;;5.80;;
24335;SDS011;33098;52.400;16.880;2023-04-01T18:14:37;6.10;;;4.70;;
24335;SDS011;33098;52.400;16.880;2023-04-01T18:17:23;5.70;;;4.80;;
24335;SDS011;33098;52.400;16.880;2023-04-01T18:25:22;7.90;;;5.10;;
24335;SDS011;33098;52.400;16.880;2023-04-01T18:28:14;6.90;;;5.20;;
24335;SDS011;33098;52.400;16.880;2023-04-01T18:30:56;6.60;;;4.70;;
24335;SDS011;33098;52.400;16.880;2023-04-01T18:33:50;6.80;;;4.90;;
24335;SDS011;33098;52.400;16.880;2023-04-01T18:36:44;10.70;;;5.00;;
24335;SDS011;33098;52.400;16.880;2023-04-01T18:39:21;5.80;;;4.70;;
24335;SDS011;33098;52.400;16.880;2023-04-01T18:42:16;6.20;;;5.10;;
24335;SDS011;33098;52.400;16.880;2023-04-01T18:45:20;5.50;;;4.40;;
24335;SDS011;33098;52.400;16.880;2023-04-01T18:50:36;5.30;;;4.30;;
24335;SDS011;33098;52.400;16.880;2023-04-01T18:53:14;6.70;;;4.40;;
24335;SDS011;33098;52.400;16.880;2023-04-01T18:55:49;5.70;;;4.40;;
24335;SDS011;33098;52.400;16.880;2023-04-01T19:01:02;8.70;;;6.10;;
24335;SDS011;33098;52.400;16.880;2023-04-01T19:06:12;5.20;;;4.30;;
24335;SDS011;33098;52.400;16.880;2023-04-01T19:09:14;5.80;;;4.80;;
24335;SDS011;33098;52.400;16.880;2023-04-01T19:29:00;5.80;;;4.70;;
24335;SDS011;33098;52.400;16.880;2023-04-01T19:37:24;6.70;;;4.60;;
24335;SDS011;33098;52.400;16.880;2023-04-01T19:40:14;5.60;;;4.30;;
24335;SDS011;33098;52.400;16.880;2023-04-01T19:43:01;6.00;;;4.40;;
24335;SDS011;33098;52.400;16.880;2023-04-01T19:45:46;5.80;;;4.30;;
24335;SDS011;33098;52.400;16.880;2023-04-01T19:48:44;5.90;;;5.10;;
24335;SDS011;33098;52.400;16.880;2023-04-01T19:51:33;7.70;;;4.90;;
24335;SDS011;33098;52.400;16.880;2023-04-01T19:54:30;6.40;;;4.50;;
24335;SDS011;33098;52.400;16.880;2023-04-01T19:57:09;5.50;;;4.40;;
24335;SDS011;33098;52.400;16.880;2023-04-01T20:19:42;5.30;;;4.10;;
24335;SDS011;33098;52.400;16.880;2023-04-01T20:22:20;5.80;;;4.40;;
24335;SDS011;33098;52.400;16.880;2023-04-01T20:24:52;5.30;;;4.20;;
24335;SDS011;33098;52.400;16.880;2023-04-01T20:27:31;5.40;;;4.10;;
24335;SDS011;33098;52.400;16.880;2023-04-01T20:30:15;5.40;;;4.30;;
24335;SDS011;33098;52.400;16.880;2023-04-01T20:35:43;5.20;;;4.40;;
24335;SDS011;33098;52.400;16.880;2023-04-01T20:41:26;5.40;;;4.10;;
24335;SDS011;33098;52.400;16.880;2023-04-01T20:43:58;4.50;;;3.80;;
24335;SDS011;33098;52.400;16.880;2023-04-01T20:49:33;5.50;;;4.10;;
24335;SDS011;33098;52.400;16.880;2023-04-01T20:52:15;6.20;;;3.80;;
24335;SDS011;33098;52.400;16.880;2023-04-01T21:00:31;4.90;;;3.80;;
24335;SDS011;33098;52.400;16.880;2023-04-01T21:03:12;5.20;;;3.90;;
24335;SDS011;33098;52.400;16.880;2023-04-01T21:08:44;5.10;;;4.00;;
24335;SDS011;33098;52.400;16.880;2023-04-01T21:11:22;6.20;;;4.90;;
24335;SDS011;33098;52.400;16.880;2023-04-01T21:27:34;7.50;;;5.20;;
24335;SDS011;33098;52.400;16.880;2023-04-01T21:53:14;7.60;;;6.00;;
24335;SDS011;33098;52.400;16.880;2023-04-01T22:05:10;10.20;;;6.30;;
24335;SDS011;33098;52.400;16.880;2023-04-01T22:07:51;10.80;;;5.90;;
24335;SDS011;33098;52.400;16.880;2023-04-01T22:13:18;6.40;;;5.00;;
24335;SDS011;33098;52.400;16.880;2023-04-01T22:19:09;8.40;;;5.70;;
24335;SDS011;33098;52.400;16.880;2023-04-01T22:27:19;9.70;;;6.50;;
24335;SDS011;33098;52.400;16.880;2023-04-01T22:32:46;9.80;;;6.50;;
24335;SDS011;33098;52.400;16.880;2023-04-01T22:35:25;11.30;;;6.40;;
24335;SDS011;33098;52.400;16.880;2023-04-01T22:40:54;11.50;;;6.50;;
24335;SDS011;33098;52.400;16.880;2023-04-01T22:43:46;9.70;;;6.20;;
24335;SDS011;33098;52.400;16.880;2023-04-01T22:54:41;7.60;;;4.90;;
24335;SDS011;33098;52.400;16.880;2023-04-01T23:00:16;8.40;;;5.10;;
24335;SDS011;33098;52.400;16.880;2023-04-01T23:03:07;6.80;;;4.90;;
24335;SDS011;33098;52.400;16.880;2023-04-01T23:05:51;5.60;;;3.80;;
24335;SDS011;33098;52.400;16.880;2023-04-01T23:11:12;7.60;;;4.60;;
24335;SDS011;33098;52.400;16.880;2023-04-01T23:13:45;6.20;;;4.20;;
24335;SDS011;33098;52.400;16.880;2023-04-01T23:16:29;6.20;;;3.90;;
24335;SDS011;33098;52.400;16.880;2023-04-01T23:19:06;5.70;;;4.40;;
24335;SDS011;33098;52.400;16.880;2023-04-01T23:22:26;6.70;;;4.90;;
24335;SDS011;33098;52.400;16.880;2023-04-01T23:24:58;8.20;;;5.30;;
24335;SDS011;33098;52.400;16.880;2023-04-01T23:27:43;10.10;;;5.70;;
24335;SDS011;33098;52.400;16.880;2023-04-01T23:30:57;7.40;;;4.70;;
24335;SDS011;33098;52.400;16.880;2023-04-01T23:35:54;7.80;;;5.00;;
24335;SDS011;33098;52.400;16.880;2023-04-01T23:38:34;9.20;;;4.70;;
24335;SDS011;33098;52.400;16.880;2023-04-01T23:41:44;7.30;;;4.60;;
24335;SDS011;33098;52.400;16.880;2023-04-01T23:44:15;7.70;;;4.40;;
24335;SDS011;33098;52.400;16.880;2023-04-01T23:46:42;6.10;;;4.30;;
24335;SDS011;33098;52.400;16.880;2023-04-01T23:49:19;5.20;;;4.10;;
24335;SDS011;33098;52.400;16.880;2023-04-01T23:51:56;7.70;;;4.20;;
24335;SDS011;33098;52.400;16.880;2023-04-01T23:57:03;5.60;;;4.40;;
24335;SDS011;33098;52.400;16.880;2023-04-01T23:59:34;6.00;;;4.00;;
